createdAt,value
2022-09-18T00:01:26.815Z,15.10
2022-09-18T00:04:15.113Z,11.30
2022-09-18T00:07:03.029Z,12.98
2022-09-18T00:09:50.900Z,9.55
2022-09-18T00:12:38.287Z,16.00
2022-09-18T00:15:26.824Z,15.82
2022-09-18T00:18:17.955Z,12.93
2022-09-18T00:21:11.282Z,14.75
2022-09-18T00:24:02.385Z,13.13
2022-09-18T00:26:51.820Z,12.38
2022-09-18T00:29:45.399Z,9.68
2022-09-18T00:32:35.633Z,23.60
2022-09-18T00:35:26.353Z,14.80
2022-09-18T00:38:15.963Z,17.23
2022-09-18T00:41:06.399Z,10.73
2022-09-18T00:43:57.854Z,14.52
2022-09-18T00:46:48.020Z,14.07
2022-09-18T00:49:37.987Z,9.52
2022-09-18T00:52:29.933Z,15.82
2022-09-18T00:55:21.203Z,12.48
2022-09-18T00:58:10.657Z,12.45
2022-09-18T01:00:59.932Z,12.07
2022-09-18T01:03:49.186Z,15.85
2022-09-18T01:06:41.136Z,17.20
2022-09-18T01:09:36.863Z,11.68
2022-09-18T01:12:32.928Z,10.77
2022-09-18T01:15:27.828Z,16.42
2022-09-18T01:18:21.491Z,16.02
2022-09-18T01:21:12.344Z,16.67
2022-09-18T01:24:23.365Z,16.85
2022-09-18T01:27:15.697Z,22.20
2022-09-18T01:30:08.448Z,16.35
2022-09-18T01:32:58.392Z,18.60
2022-09-18T01:35:48.835Z,21.92
2022-09-18T01:38:37.555Z,19.48
2022-09-18T01:41:26.453Z,22.17
2022-09-18T01:44:15.842Z,18.10
2022-09-18T01:47:09.446Z,19.20
2022-09-18T01:49:59.521Z,21.23
2022-09-18T01:52:48.447Z,18.30
2022-09-18T01:55:36.438Z,21.45
2022-09-18T01:58:25.103Z,18.00
2022-09-18T02:01:14.373Z,14.15
2022-09-18T02:04:06.035Z,18.30
2022-09-18T02:06:56.162Z,13.90
2022-09-18T02:09:44.899Z,14.48
2022-09-18T02:12:34.784Z,16.83
2022-09-18T02:15:24.195Z,10.32
2022-09-18T02:18:13.611Z,11.95
2022-09-18T02:21:02.498Z,10.18
2022-09-18T02:23:50.450Z,11.38
2022-09-18T02:26:39.163Z,14.90
2022-09-18T02:29:27.258Z,12.27
2022-09-18T02:32:14.633Z,13.55
2022-09-18T02:35:02.066Z,13.63
2022-09-18T02:37:56.520Z,14.23
2022-09-18T02:40:48.361Z,11.45
2022-09-18T02:43:40.291Z,14.32
2022-09-18T02:46:31.594Z,10.50
2022-09-18T02:49:24.822Z,11.25
2022-09-18T02:52:15.881Z,10.97
2022-09-18T02:55:09.231Z,10.80
2022-09-18T02:57:58.794Z,11.38
2022-09-18T03:00:47.164Z,12.40
2022-09-18T03:03:35.110Z,12.05
2022-09-18T03:06:23.057Z,13.10
2022-09-18T03:09:12.019Z,13.00
2022-09-18T03:12:01.994Z,10.27
2022-09-18T03:14:50.474Z,13.25
2022-09-18T03:17:37.901Z,15.15
2022-09-18T03:20:26.771Z,14.30
2022-09-18T03:23:14.176Z,12.15
2022-09-18T03:26:02.018Z,14.07
2022-09-18T03:28:51.340Z,12.98
2022-09-18T03:31:39.029Z,11.15
2022-09-18T03:34:26.915Z,11.02
2022-09-18T03:37:14.900Z,10.10
2022-09-18T03:40:03.413Z,12.43
2022-09-18T03:42:51.060Z,8.57
2022-09-18T03:45:40.647Z,14.57
2022-09-18T03:48:28.154Z,9.23
2022-09-18T03:51:16.125Z,11.18
2022-09-18T03:54:04.409Z,12.63
2022-09-18T03:56:51.887Z,11.43
2022-09-18T03:59:39.458Z,10.38
2022-09-18T04:02:28.994Z,9.65
2022-09-18T04:05:17.038Z,15.73
2022-09-18T04:08:05.515Z,13.18
2022-09-18T04:10:53.020Z,12.93
2022-09-18T04:13:40.412Z,18.42
2022-09-18T04:16:29.750Z,8.75
2022-09-18T04:19:18.916Z,9.65
2022-09-18T04:22:06.587Z,9.35
2022-09-18T04:24:54.308Z,9.88
2022-09-18T04:27:42.421Z,9.18
2022-09-18T04:30:30.160Z,10.57
2022-09-18T04:33:17.691Z,10.43
2022-09-18T04:36:06.820Z,9.13
2022-09-18T04:38:54.088Z,12.90
2022-09-18T04:41:42.339Z,8.38
2022-09-18T04:44:29.199Z,8.73
2022-09-18T04:47:16.465Z,7.88
2022-09-18T04:50:04.529Z,11.70
2022-09-18T04:52:53.382Z,17.60
2022-09-18T04:55:40.918Z,8.85
2022-09-18T04:58:28.670Z,11.70
2022-09-18T05:01:16.306Z,10.98
2022-09-18T05:04:05.624Z,8.07
2022-09-18T05:06:52.757Z,12.45
2022-09-18T05:09:42.243Z,8.48
2022-09-18T05:12:29.747Z,7.97
2022-09-18T05:15:17.350Z,8.55
2022-09-18T05:18:11.109Z,7.03
2022-09-18T05:21:01.974Z,6.78
2022-09-18T05:23:49.010Z,8.13
2022-09-18T05:26:37.760Z,5.97
2022-09-18T05:29:24.989Z,6.45
2022-09-18T05:32:12.286Z,8.20
2022-09-18T05:34:59.734Z,6.88
2022-09-18T05:37:46.923Z,9.35
2022-09-18T05:40:35.246Z,9.63
2022-09-18T05:43:23.852Z,5.80
2022-09-18T05:46:11.026Z,8.48
2022-09-18T05:48:57.956Z,12.35
2022-09-18T05:51:46.421Z,11.82
2022-09-18T05:54:36.360Z,8.98
2022-09-18T05:57:23.448Z,14.40
2022-09-18T06:00:14.559Z,11.07
2022-09-18T06:03:03.363Z,11.70
2022-09-18T06:05:53.508Z,13.48
2022-09-18T06:08:40.776Z,14.95
2022-09-18T06:11:29.159Z,16.05
2022-09-18T06:14:16.357Z,12.00
2022-09-18T06:17:04.867Z,12.18
2022-09-18T06:19:52.128Z,9.65
2022-09-18T06:22:39.576Z,10.95
2022-09-18T06:25:27.027Z,10.30
2022-09-18T06:28:14.235Z,10.38
2022-09-18T06:31:02.358Z,8.20
2022-09-18T06:33:51.832Z,9.07
2022-09-18T06:36:39.256Z,10.52
2022-09-18T06:39:26.575Z,9.73
2022-09-18T06:42:13.671Z,11.10
2022-09-18T06:45:01.015Z,9.15
2022-09-18T06:47:48.467Z,9.02
2022-09-18T06:50:37.482Z,10.75
2022-09-18T06:53:25.390Z,10.13
2022-09-18T06:56:12.695Z,7.60
2022-09-18T06:58:59.926Z,7.20
2022-09-18T07:01:48.019Z,9.27
2022-09-18T07:04:35.667Z,7.57
2022-09-18T07:07:24.299Z,15.40
2022-09-18T07:10:11.699Z,12.52
2022-09-18T07:12:59.405Z,9.98
2022-09-18T07:15:47.195Z,8.45
2022-09-18T07:18:35.610Z,7.53
2022-09-18T07:21:22.865Z,7.50
2022-09-18T07:24:12.020Z,7.43
2022-09-18T07:26:59.316Z,9.50
2022-09-18T07:29:46.814Z,8.60
2022-09-18T07:32:36.928Z,7.32
2022-09-18T07:35:24.739Z,10.57
2022-09-18T07:38:12.345Z,10.85
2022-09-18T07:41:05.021Z,7.53
2022-09-18T07:43:53.181Z,7.65
2022-09-18T07:46:41.514Z,8.77
2022-09-18T07:49:30.484Z,6.68
2022-09-18T07:52:17.583Z,8.30
2022-09-18T07:55:05.310Z,5.97
2022-09-18T07:57:57.698Z,7.13
2022-09-18T08:00:45.135Z,7.05
2022-09-18T08:03:32.263Z,9.00
2022-09-18T08:06:22.717Z,4.68
2022-09-18T08:09:47.004Z,7.72
2022-09-18T08:12:38.247Z,6.13
2022-09-18T08:15:27.552Z,6.60
2022-09-18T08:18:15.396Z,3.35
2022-09-18T08:21:06.221Z,4.30
2022-09-18T08:23:57.224Z,4.95
2022-09-18T08:26:44.391Z,5.60
2022-09-18T08:29:31.844Z,3.75
2022-09-18T08:32:20.382Z,3.47
2022-09-18T08:35:08.492Z,5.88
2022-09-18T08:37:56.241Z,3.30
2022-09-18T08:40:49.414Z,5.55
2022-09-18T08:43:45.951Z,7.57
2022-09-18T08:46:35.691Z,9.07
2022-09-18T08:49:27.807Z,8.65
2022-09-18T08:52:18.311Z,8.25
2022-09-18T08:55:07.270Z,10.68
2022-09-18T08:57:57.059Z,10.95
2022-09-18T09:00:46.517Z,18.08
2022-09-18T09:03:36.391Z,15.32
2022-09-18T09:06:31.695Z,13.75
2022-09-18T09:09:31.778Z,29.00
2022-09-18T09:12:24.790Z,38.75
2022-09-18T09:15:27.679Z,15.05
2022-09-18T09:18:17.122Z,12.25
2022-09-18T09:21:11.902Z,16.77
2022-09-18T09:24:07.866Z,22.55
2022-09-18T09:26:56.089Z,19.88
2022-09-18T09:29:45.433Z,18.48
2022-09-18T09:32:34.305Z,11.55
2022-09-18T09:35:25.495Z,15.68
2022-09-18T09:38:24.921Z,13.65
2022-09-18T09:41:19.391Z,15.05
2022-09-18T09:44:16.342Z,13.63
2022-09-18T09:47:15.681Z,15.43
2022-09-18T09:50:16.618Z,23.05
2022-09-18T09:53:04.987Z,17.35
2022-09-18T09:55:55.592Z,14.73
2022-09-18T09:58:47.776Z,11.93
2022-09-18T10:01:36.868Z,15.63
2022-09-18T10:04:28.303Z,19.23
2022-09-18T10:07:18.927Z,23.88
2022-09-18T10:10:11.639Z,16.02
2022-09-18T10:13:02.057Z,16.45
2022-09-18T10:15:51.150Z,20.85
2022-09-18T10:18:39.620Z,21.00
2022-09-18T10:21:28.296Z,15.05
2022-09-18T10:24:19.237Z,20.45
2022-09-18T10:27:10.291Z,23.33
2022-09-18T10:29:57.939Z,19.38
2022-09-18T10:32:46.426Z,18.98
2022-09-18T10:35:43.187Z,14.77
2022-09-18T10:38:32.399Z,10.55
2022-09-18T10:41:24.527Z,13.93
2022-09-18T10:44:21.337Z,14.18
2022-09-18T10:47:09.938Z,14.80
2022-09-18T10:49:59.290Z,13.00
2022-09-18T10:52:47.070Z,36.00
2022-09-18T10:55:33.904Z,30.85
2022-09-18T10:58:26.529Z,17.90
2022-09-18T11:01:13.869Z,17.15
2022-09-18T11:04:02.079Z,14.25
2022-09-18T11:06:51.729Z,14.75
2022-09-18T11:09:40.458Z,15.77
2022-09-18T11:12:28.210Z,14.02
2022-09-18T11:15:18.514Z,14.90
2022-09-18T11:18:07.506Z,20.38
2022-09-18T11:20:57.000Z,45.95
2022-09-18T11:23:46.412Z,41.97
2022-09-18T11:26:35.899Z,41.67
2022-09-18T11:29:25.670Z,64.43
2022-09-18T11:32:16.114Z,24.67
2022-09-18T11:35:04.699Z,25.77
2022-09-18T11:37:53.770Z,27.35
2022-09-18T11:40:46.535Z,20.88
2022-09-18T11:43:36.658Z,19.55
2022-09-18T11:46:30.429Z,17.15
2022-09-18T11:49:20.247Z,37.70
2022-09-18T11:52:13.526Z,24.98
2022-09-18T11:55:03.828Z,12.68
2022-09-18T11:57:55.135Z,13.82
2022-09-18T12:00:44.096Z,10.57
2022-09-18T12:03:32.916Z,9.65
2022-09-18T12:06:25.099Z,6.88
2022-09-18T12:09:14.974Z,5.80
2022-09-18T12:12:04.151Z,4.75
2022-09-18T12:14:58.115Z,3.22
2022-09-18T12:17:48.713Z,5.43
2022-09-18T12:20:38.908Z,4.85
2022-09-18T12:23:27.166Z,5.55
2022-09-18T12:26:16.305Z,6.45
2022-09-18T12:29:08.227Z,5.78
2022-09-18T12:32:01.341Z,4.50
2022-09-18T12:34:53.911Z,6.60
2022-09-18T12:37:46.870Z,6.38
2022-09-18T12:40:38.078Z,23.73
2022-09-18T12:43:38.877Z,22.17
2022-09-18T12:46:36.510Z,24.45
2022-09-18T12:49:32.258Z,44.92
2022-09-18T12:52:27.068Z,35.70
2022-09-18T12:55:26.030Z,7.43
2022-09-18T12:58:18.493Z,7.93
2022-09-18T13:01:09.973Z,9.40
2022-09-18T13:04:02.353Z,7.43
2022-09-18T13:06:54.479Z,7.00
2022-09-18T13:09:43.125Z,10.57
2022-09-18T13:12:32.698Z,17.88
2022-09-18T13:15:21.226Z,7.18
2022-09-18T13:18:17.146Z,5.05
2022-09-18T13:21:05.867Z,5.18
2022-09-18T13:23:55.521Z,8.13
2022-09-18T13:26:44.188Z,8.25
2022-09-18T13:29:48.222Z,5.95
2022-09-18T13:32:40.170Z,8.40
2022-09-18T13:35:30.422Z,7.88
2022-09-18T13:38:19.755Z,6.60
2022-09-18T13:41:10.281Z,8.02
2022-09-18T13:43:58.431Z,7.82
2022-09-18T13:46:46.471Z,4.65
2022-09-18T13:49:36.938Z,8.32
2022-09-18T13:52:41.905Z,7.75
2022-09-18T13:55:34.600Z,6.53
2022-09-18T13:58:48.057Z,6.70
2022-09-18T14:01:59.232Z,6.75
2022-09-18T14:04:50.533Z,8.43
2022-09-18T14:07:53.472Z,8.80
2022-09-18T14:11:05.062Z,8.35
2022-09-18T14:13:55.496Z,8.90
2022-09-18T14:16:44.566Z,8.68
2022-09-18T14:19:33.344Z,10.85
2022-09-18T14:22:25.350Z,9.02
2022-09-18T14:25:13.406Z,7.53
2022-09-18T14:28:05.133Z,8.63
2022-09-18T14:31:07.747Z,10.80
2022-09-18T14:33:56.941Z,8.55
2022-09-18T14:36:44.722Z,9.60
2022-09-18T14:39:33.322Z,8.93
2022-09-18T14:42:24.913Z,11.00
2022-09-18T14:45:25.826Z,11.07
2022-09-18T14:48:21.635Z,11.25
2022-09-18T14:51:17.780Z,8.95
2022-09-18T14:54:16.991Z,12.02
2022-09-18T14:57:04.294Z,11.48
2022-09-18T14:59:52.059Z,4.55
2022-09-18T15:02:39.913Z,7.50
2022-09-18T15:05:28.715Z,2.78
2022-09-18T15:08:21.639Z,6.15
2022-09-18T15:11:14.763Z,2.72
2022-09-18T15:14:01.827Z,3.38
2022-09-18T15:16:56.239Z,4.88
2022-09-18T15:19:55.193Z,3.75
2022-09-18T15:22:43.072Z,2.13
2022-09-18T15:25:33.878Z,5.22
2022-09-18T15:28:21.939Z,4.47
2022-09-18T15:31:10.260Z,4.03
2022-09-18T15:33:58.482Z,6.32
2022-09-18T15:36:45.650Z,3.13
2022-09-18T15:39:33.889Z,4.15
2022-09-18T15:42:26.671Z,4.88
2022-09-18T15:45:20.141Z,3.15
2022-09-18T15:48:23.613Z,5.35
2022-09-18T15:51:14.272Z,5.75
2022-09-18T15:54:03.174Z,3.00
2022-09-18T15:56:52.128Z,2.92
2022-09-18T15:59:42.490Z,5.15
2022-09-18T16:02:35.374Z,4.88
2022-09-18T16:05:23.403Z,2.03
2022-09-18T16:08:19.165Z,2.67
2022-09-18T16:11:07.210Z,2.97
2022-09-18T16:13:56.445Z,3.10
2022-09-18T16:16:45.228Z,4.35
2022-09-18T16:19:32.943Z,3.65
2022-09-18T16:22:20.867Z,4.60
2022-09-18T16:25:13.563Z,4.63
2022-09-18T16:28:01.570Z,4.95
2022-09-18T16:30:49.229Z,4.50
2022-09-18T16:33:48.604Z,8.48
2022-09-18T16:36:36.940Z,5.07
2022-09-18T16:39:26.251Z,6.10
2022-09-18T16:42:17.466Z,4.30
2022-09-18T16:45:04.967Z,6.90
2022-09-18T16:47:52.658Z,3.80
2022-09-18T16:50:42.110Z,5.47
2022-09-18T16:53:29.522Z,5.05
2022-09-18T16:56:18.526Z,6.70
2022-09-18T16:59:07.154Z,4.88
2022-09-18T17:02:03.855Z,5.38
2022-09-18T17:04:51.846Z,4.13
2022-09-18T17:07:42.957Z,4.05
2022-09-18T17:10:31.570Z,9.10
2022-09-18T17:13:18.905Z,5.85
2022-09-18T17:16:07.365Z,5.68
2022-09-18T17:18:55.353Z,4.88
2022-09-18T17:21:42.345Z,5.63
2022-09-18T17:24:30.957Z,4.95
2022-09-18T17:27:18.188Z,4.95
2022-09-18T17:30:06.005Z,7.90
2022-09-18T17:32:53.325Z,4.45
2022-09-18T17:35:40.777Z,3.78
2022-09-18T17:38:27.970Z,4.00
2022-09-18T17:41:16.910Z,4.78
2022-09-18T17:44:04.468Z,4.05
2022-09-18T17:46:52.833Z,1.80
2022-09-18T17:49:40.699Z,4.50
2022-09-18T17:52:27.485Z,3.70
2022-09-18T17:55:14.747Z,4.95
2022-09-18T17:58:03.713Z,4.13
2022-09-18T18:00:50.818Z,2.63
2022-09-18T18:03:38.510Z,9.25
2022-09-18T18:06:25.891Z,4.03
2022-09-18T18:09:13.698Z,1.75
2022-09-18T18:12:03.142Z,2.25
2022-09-18T18:14:51.699Z,1.90
2022-09-18T18:17:40.520Z,2.78
2022-09-18T18:20:27.372Z,1.38
2022-09-18T18:23:14.487Z,2.60
2022-09-18T18:26:01.362Z,1.90
2022-09-18T18:28:50.268Z,3.05
2022-09-18T18:31:39.744Z,2.97
2022-09-18T18:34:27.323Z,3.53
2022-09-18T18:37:14.830Z,1.95
2022-09-18T18:40:01.995Z,2.88
2022-09-18T18:42:49.774Z,3.47
2022-09-18T18:45:37.555Z,2.22
2022-09-18T18:48:26.118Z,2.65
2022-09-18T18:51:14.072Z,3.25
2022-09-18T18:54:03.606Z,5.25
2022-09-18T18:56:51.690Z,4.28
2022-09-18T18:59:39.143Z,4.68
2022-09-18T19:02:26.005Z,5.65
2022-09-18T19:05:16.337Z,4.25
2022-09-18T19:08:03.394Z,3.75
2022-09-18T19:10:55.914Z,4.68
2022-09-18T19:13:44.882Z,4.18
2022-09-18T19:16:32.572Z,4.28
2022-09-18T19:19:20.855Z,6.45
2022-09-18T19:22:13.801Z,4.65
2022-09-18T19:25:01.358Z,5.10
2022-09-18T19:27:48.651Z,4.55
2022-09-18T19:30:36.687Z,7.38
2022-09-18T19:33:23.713Z,4.88
2022-09-18T19:36:11.267Z,6.15
2022-09-18T19:39:00.146Z,4.95
2022-09-18T19:41:52.319Z,6.45
2022-09-18T19:44:42.032Z,5.63
2022-09-18T19:47:30.054Z,8.23
2022-09-18T19:50:19.782Z,4.88
2022-09-18T19:53:06.957Z,4.95
2022-09-18T19:55:55.716Z,7.35
2022-09-18T19:58:44.877Z,6.60
2022-09-18T20:01:32.140Z,7.07
2022-09-18T20:04:19.162Z,7.35
2022-09-18T20:07:07.922Z,6.10
2022-09-18T20:09:55.489Z,8.05
2022-09-18T20:12:43.869Z,7.65
2022-09-18T20:15:30.813Z,9.23
2022-09-18T20:18:17.594Z,10.07
2022-09-18T20:21:05.798Z,8.45
2022-09-18T20:23:56.424Z,9.65
2022-09-18T20:26:43.273Z,10.57
2022-09-18T20:29:31.493Z,11.50
2022-09-18T20:32:18.498Z,9.18
2022-09-18T20:35:05.969Z,12.27
2022-09-18T20:37:53.236Z,8.57
2022-09-18T20:40:40.413Z,10.52
2022-09-18T20:43:28.627Z,14.35
2022-09-18T20:46:18.002Z,15.00
2022-09-18T20:49:05.171Z,18.30
2022-09-18T20:51:52.454Z,12.75
2022-09-18T20:54:41.570Z,17.20
2022-09-18T20:57:28.625Z,16.70
2022-09-18T21:00:16.259Z,15.68
2022-09-18T21:03:06.890Z,16.75
2022-09-18T21:06:07.622Z,20.10
2022-09-18T21:09:02.086Z,17.27
2022-09-18T21:11:49.357Z,19.95
2022-09-18T21:14:37.166Z,19.77
2022-09-18T21:17:24.506Z,23.73
2022-09-18T21:20:13.462Z,22.73
2022-09-18T21:23:18.149Z,23.00
2022-09-18T21:26:13.509Z,21.40
2022-09-18T21:29:03.182Z,19.40
2022-09-18T21:31:51.446Z,24.33
2022-09-18T21:34:38.333Z,21.02
2022-09-18T21:37:26.646Z,25.77
2022-09-18T21:40:14.320Z,27.38
2022-09-18T21:43:03.117Z,23.77
2022-09-18T21:45:50.478Z,23.48
2022-09-18T21:48:38.394Z,26.33
2022-09-18T21:51:25.727Z,30.10
2022-09-18T21:54:17.618Z,28.40
2022-09-18T21:57:05.578Z,27.58
2022-09-18T21:59:52.665Z,27.15
2022-09-18T22:02:41.182Z,32.10
2022-09-18T22:05:29.439Z,32.97
2022-09-18T22:08:16.702Z,31.25
2022-09-18T22:11:06.232Z,33.35
2022-09-18T22:13:54.642Z,33.95
2022-09-18T22:16:43.050Z,36.55
2022-09-18T22:19:30.346Z,37.53
2022-09-18T22:22:17.758Z,36.97
2022-09-18T22:25:05.072Z,41.95
2022-09-18T22:27:54.130Z,37.42
2022-09-18T22:30:41.018Z,41.40
2022-09-18T22:33:28.287Z,40.42
2022-09-18T22:36:15.876Z,43.13
2022-09-18T22:39:02.577Z,37.25
2022-09-18T22:41:51.376Z,44.95
2022-09-18T22:44:39.577Z,44.45
2022-09-18T22:47:26.589Z,43.92
2022-09-18T22:50:13.857Z,40.60
2022-09-18T22:53:00.885Z,41.05
2022-09-18T22:55:47.601Z,35.85
2022-09-18T22:58:35.394Z,35.65
2022-09-18T23:01:25.274Z,37.15
2022-09-18T23:04:12.550Z,29.25
2022-09-18T23:07:00.430Z,35.00
2022-09-18T23:09:48.589Z,36.90
2022-09-18T23:12:35.471Z,41.55
2022-09-18T23:15:22.461Z,41.15
2022-09-18T23:18:11.142Z,29.63
2022-09-18T23:21:02.718Z,39.00
2022-09-18T23:23:50.606Z,31.17
2022-09-18T23:26:39.461Z,37.10
2022-09-18T23:29:27.402Z,33.92
2022-09-18T23:32:14.311Z,30.63
2022-09-18T23:35:03.898Z,30.40
2022-09-18T23:37:51.107Z,31.40
2022-09-18T23:40:38.205Z,28.15
2022-09-18T23:43:25.409Z,27.88
2022-09-18T23:46:12.239Z,39.85
2022-09-18T23:48:59.834Z,30.40
2022-09-18T23:51:48.357Z,32.45
2022-09-18T23:54:35.357Z,27.58
2022-09-18T23:57:22.982Z,27.58
